createdAt,value
2022-11-02T00:00:53.193Z,58.97
2022-11-02T00:01:53.261Z,58.01
2022-11-02T00:02:53.249Z,61.55
2022-11-02T00:03:53.175Z,59.30
2022-11-02T00:04:53.171Z,60.10
2022-11-02T00:05:53.179Z,58.65
2022-11-02T00:06:53.153Z,61.23
2022-11-02T00:07:53.147Z,62.68
2022-11-02T00:08:53.137Z,61.87
2022-11-02T00:09:53.133Z,61.23
2022-11-02T00:10:53.133Z,61.07
2022-11-02T00:11:53.110Z,62.68
2022-11-02T00:12:53.106Z,60.91
2022-11-02T00:13:53.103Z,59.46
2022-11-02T00:14:53.098Z,59.62
2022-11-02T00:15:53.074Z,63.49
2022-11-02T00:16:53.104Z,60.10
2022-11-02T00:17:53.186Z,57.52
2022-11-02T00:18:53.060Z,57.85
2022-11-02T00:19:53.062Z,58.97
2022-11-02T00:20:53.049Z,53.82
2022-11-02T00:21:53.066Z,61.55
2022-11-02T00:22:53.045Z,59.30
2022-11-02T00:23:53.034Z,64.13
2022-11-02T00:24:53.030Z,59.46
2022-11-02T00:25:53.026Z,57.04
2022-11-02T00:26:53.001Z,59.14
2022-11-02T00:27:52.997Z,57.52
2022-11-02T00:28:53.006Z,58.33
2022-11-02T00:29:52.995Z,52.85
2022-11-02T00:30:52.970Z,55.11
2022-11-02T00:31:52.987Z,59.30
2022-11-02T00:32:52.986Z,62.04
2022-11-02T00:33:52.971Z,63.00
2022-11-02T00:34:52.968Z,60.42
2022-11-02T00:35:52.946Z,49.47
2022-11-02T00:36:55.476Z,57.20
2022-11-02T00:37:53.923Z,59.14
2022-11-02T00:38:52.953Z,60.42
2022-11-02T00:39:52.928Z,55.27
2022-11-02T00:40:52.901Z,59.30
2022-11-02T00:41:52.902Z,59.46
2022-11-02T00:42:52.901Z,60.42
2022-11-02T00:43:52.881Z,61.39
2022-11-02T00:44:52.905Z,59.30
2022-11-02T00:45:52.873Z,59.62
2022-11-02T00:46:52.878Z,61.55
2022-11-02T00:47:52.867Z,59.94
2022-11-02T00:48:52.862Z,61.87
2022-11-02T00:49:52.853Z,59.62
2022-11-02T00:50:52.846Z,57.36
2022-11-02T00:51:52.842Z,57.36
2022-11-02T00:52:52.825Z,63.16
2022-11-02T00:53:52.813Z,51.72
2022-11-02T00:54:52.816Z,56.88
2022-11-02T00:55:52.810Z,53.50
2022-11-02T00:56:52.814Z,60.59
2022-11-02T00:57:52.795Z,58.01
2022-11-02T00:58:52.784Z,60.91
2022-11-02T00:59:52.773Z,52.53
2022-11-02T01:00:52.786Z,57.20
2022-11-02T01:01:52.970Z,59.46
2022-11-02T01:02:52.750Z,61.23
2022-11-02T01:03:52.757Z,60.59
2022-11-02T01:04:52.748Z,61.71
2022-11-02T01:05:53.756Z,56.07
2022-11-02T01:06:52.729Z,58.97
2022-11-02T01:07:52.729Z,58.01
2022-11-02T01:08:52.713Z,59.30
2022-11-02T01:09:52.704Z,62.52
2022-11-02T01:15:05.276Z,61.55
2022-11-02T01:16:05.247Z,57.85
2022-11-02T01:17:05.247Z,56.07
2022-11-02T01:18:05.500Z,59.62
2022-11-02T01:19:05.204Z,60.42
2022-11-02T01:20:05.205Z,57.85
2022-11-02T01:21:05.203Z,58.97
2022-11-02T01:22:05.209Z,55.91
2022-11-02T01:23:05.193Z,50.11
2022-11-02T01:24:05.251Z,61.87
2022-11-02T01:25:05.159Z,55.43
2022-11-02T01:26:05.171Z,59.78
2022-11-02T01:27:05.164Z,59.62
2022-11-02T01:28:05.587Z,55.59
2022-11-02T01:29:05.143Z,60.10
2022-11-02T01:30:05.150Z,59.46
2022-11-02T01:31:05.143Z,60.26
2022-11-02T01:32:05.124Z,59.14
2022-11-02T01:33:05.138Z,56.56
2022-11-02T01:34:05.107Z,56.07
2022-11-02T01:35:05.108Z,63.33
2022-11-02T01:36:05.097Z,59.94
2022-11-02T01:37:05.090Z,56.88
2022-11-02T01:38:05.398Z,57.69
2022-11-02T01:39:05.081Z,61.23
2022-11-02T01:40:05.068Z,58.17
2022-11-02T01:41:05.060Z,54.79
2022-11-02T01:42:05.044Z,60.26
2022-11-02T01:43:05.046Z,56.40
2022-11-02T01:44:05.058Z,59.62
2022-11-02T01:45:05.025Z,59.30
2022-11-02T01:46:05.033Z,61.55
2022-11-02T01:47:05.017Z,59.94
2022-11-02T01:48:05.190Z,58.97
2022-11-02T01:49:05.020Z,57.52
2022-11-02T01:50:05.040Z,62.20
2022-11-02T01:51:04.984Z,50.11
2022-11-02T01:52:04.992Z,60.42
2022-11-02T01:53:04.977Z,50.60
2022-11-02T01:54:04.988Z,53.01
2022-11-02T01:55:04.978Z,48.50
2022-11-02T01:56:04.965Z,48.34
2022-11-02T01:57:04.953Z,53.33
2022-11-02T01:58:05.232Z,59.14
2022-11-02T01:59:04.941Z,62.68
2022-11-02T02:00:04.936Z,60.10
2022-11-02T02:01:04.928Z,58.01
2022-11-02T02:02:05.060Z,56.40
2022-11-02T02:03:04.905Z,61.07
2022-11-02T02:04:04.912Z,62.36
2022-11-02T02:05:04.940Z,53.98
2022-11-02T02:06:04.889Z,58.17
2022-11-02T02:07:04.898Z,58.17
2022-11-02T02:08:05.274Z,59.46
2022-11-02T02:09:04.870Z,59.14
2022-11-02T02:10:04.886Z,61.39
2022-11-02T02:11:04.871Z,62.04
2022-11-02T02:12:04.875Z,59.30
2022-11-02T02:13:04.842Z,58.49
2022-11-02T02:14:04.845Z,56.88
2022-11-02T02:15:04.837Z,59.78
2022-11-02T02:16:04.906Z,60.59
2022-11-02T02:17:04.841Z,56.72
2022-11-02T02:18:05.167Z,61.55
2022-11-02T02:19:04.814Z,61.23
2022-11-02T02:20:04.814Z,62.52
2022-11-02T02:21:04.786Z,53.66
2022-11-02T02:22:04.800Z,60.26
2022-11-02T02:23:04.794Z,58.81
2022-11-02T02:24:04.786Z,50.60
2022-11-02T02:25:04.762Z,60.91
2022-11-02T02:26:04.761Z,64.29
2022-11-02T02:27:04.782Z,61.71
2022-11-02T02:28:05.040Z,57.85
2022-11-02T02:29:04.732Z,61.07
2022-11-02T02:30:04.729Z,57.85
2022-11-02T02:31:04.726Z,60.10
2022-11-02T02:32:04.725Z,61.23
2022-11-02T02:33:04.722Z,65.74
2022-11-02T02:34:04.710Z,58.01
2022-11-02T02:35:04.703Z,62.36
2022-11-02T02:36:04.698Z,59.94
2022-11-02T02:37:04.676Z,60.10
2022-11-02T02:38:04.857Z,60.59
2022-11-02T02:39:04.667Z,54.95
2022-11-02T02:40:04.658Z,54.79
2022-11-02T02:41:04.657Z,61.87
2022-11-02T02:42:04.649Z,55.91
2022-11-02T02:43:04.643Z,59.78
2022-11-02T02:44:04.658Z,59.14
2022-11-02T02:45:04.638Z,56.72
2022-11-02T02:46:04.625Z,54.79
2022-11-02T02:47:04.618Z,63.00
2022-11-02T02:48:04.977Z,58.33
2022-11-02T02:49:04.628Z,60.42
2022-11-02T02:50:04.594Z,56.24
2022-11-02T02:51:04.589Z,64.61
2022-11-02T02:52:04.585Z,60.26
2022-11-02T02:53:04.577Z,62.36
2022-11-02T02:54:04.569Z,61.55
2022-11-02T02:55:04.575Z,62.52
2022-11-02T02:56:04.561Z,61.23
2022-11-02T02:57:04.550Z,62.04
2022-11-02T02:58:04.760Z,61.55
2022-11-02T02:59:04.534Z,61.71
2022-11-02T03:00:04.537Z,60.91
2022-11-02T03:01:04.522Z,58.49
2022-11-02T03:02:04.605Z,57.85
2022-11-02T03:03:04.522Z,61.07
2022-11-02T03:04:04.499Z,63.33
2022-11-02T03:05:04.502Z,58.17
2022-11-02T03:06:04.480Z,63.97
2022-11-02T03:07:04.476Z,55.75
2022-11-02T03:08:04.827Z,63.65
2022-11-02T03:09:04.460Z,61.23
2022-11-02T03:10:04.480Z,60.10
2022-11-02T03:11:04.457Z,62.04
2022-11-02T03:12:04.458Z,60.26
2022-11-02T03:13:04.448Z,57.04
2022-11-02T03:14:04.436Z,59.30
2022-11-02T03:15:04.441Z,65.10
2022-11-02T03:16:04.422Z,63.49
2022-11-02T03:17:04.415Z,63.16
2022-11-02T03:18:04.566Z,63.49
2022-11-02T03:19:04.409Z,60.26
2022-11-02T03:20:04.416Z,61.87
2022-11-02T03:21:04.386Z,58.33
2022-11-02T03:22:04.388Z,60.91
2022-11-02T03:23:04.373Z,61.07
2022-11-02T03:24:04.368Z,67.51
2022-11-02T03:25:04.362Z,62.04
2022-11-02T03:26:04.368Z,61.55
2022-11-02T03:27:04.344Z,58.49
2022-11-02T03:28:04.653Z,63.65
2022-11-02T03:29:04.333Z,61.55
2022-11-02T03:30:04.334Z,57.52
2022-11-02T03:31:04.339Z,58.97
2022-11-02T03:32:04.309Z,60.91
2022-11-02T03:33:04.302Z,58.81
2022-11-02T03:34:04.307Z,59.94
2022-11-02T03:35:04.303Z,63.00
2022-11-02T03:36:04.293Z,60.75
2022-11-02T03:37:04.299Z,63.49
2022-11-02T03:38:04.522Z,63.16
2022-11-02T03:39:04.274Z,62.52
2022-11-02T03:40:04.270Z,58.81
2022-11-02T03:41:04.252Z,60.75
2022-11-02T03:42:04.245Z,62.84
2022-11-02T03:43:04.265Z,63.00
2022-11-02T03:44:04.234Z,61.23
2022-11-02T03:45:04.232Z,61.39
2022-11-02T03:46:04.227Z,58.33
2022-11-02T03:47:04.212Z,61.71
2022-11-02T03:48:04.577Z,61.87
2022-11-02T03:49:07.616Z,62.68
2022-11-02T03:50:04.184Z,62.36
2022-11-02T03:51:04.224Z,64.94
2022-11-02T03:52:04.177Z,60.59
2022-11-02T03:53:04.164Z,64.78
2022-11-02T03:54:04.162Z,63.33
2022-11-02T03:55:05.158Z,60.42
2022-11-02T03:56:04.159Z,58.65
2022-11-02T03:58:04.532Z,60.91
2022-11-02T03:59:04.155Z,63.81
2022-11-02T04:00:04.126Z,63.16
2022-11-02T04:01:04.105Z,61.87
2022-11-02T04:02:04.256Z,61.55
2022-11-02T04:03:04.150Z,64.45
2022-11-02T04:04:04.085Z,61.55
2022-11-02T04:05:04.101Z,58.65
2022-11-02T04:06:04.082Z,61.23
2022-11-02T04:07:04.080Z,61.71
2022-11-02T04:08:04.402Z,65.10
2022-11-02T04:09:04.061Z,61.55
2022-11-02T04:10:04.067Z,62.84
2022-11-02T04:11:04.048Z,60.26
2022-11-02T04:12:04.045Z,67.03
2022-11-02T04:13:04.024Z,65.42
2022-11-02T04:14:04.030Z,65.26
2022-11-02T04:15:04.029Z,63.16
2022-11-02T04:16:04.036Z,62.36
2022-11-02T04:17:04.029Z,64.61
2022-11-02T04:18:04.385Z,64.61
2022-11-02T04:19:03.984Z,63.16
2022-11-02T04:20:04.006Z,68.96
2022-11-02T04:21:03.984Z,68.16
2022-11-02T04:22:03.993Z,65.58
2022-11-02T04:23:03.961Z,63.97
2022-11-02T04:24:03.961Z,64.94
2022-11-02T04:25:03.958Z,63.65
2022-11-02T04:26:03.957Z,62.84
2022-11-02T04:27:03.945Z,64.78
2022-11-02T04:28:04.204Z,63.16
2022-11-02T04:29:03.925Z,66.23
2022-11-02T04:30:03.917Z,64.13
2022-11-02T04:31:03.919Z,64.13
2022-11-02T04:32:03.922Z,65.26
2022-11-02T04:33:03.893Z,62.36
2022-11-02T04:34:03.889Z,64.13
2022-11-02T04:35:03.873Z,65.10
2022-11-02T04:36:03.880Z,65.10
2022-11-02T04:37:03.865Z,65.10
2022-11-02T04:38:04.179Z,64.13
2022-11-02T04:39:03.857Z,64.94
2022-11-02T04:40:03.852Z,71.54
2022-11-02T04:41:03.865Z,66.23
2022-11-02T04:42:03.835Z,67.51
2022-11-02T04:43:03.833Z,64.61
2022-11-02T04:44:03.808Z,63.49
2022-11-02T04:45:03.818Z,65.58
2022-11-02T04:46:03.923Z,65.26
2022-11-02T04:47:03.805Z,65.42
2022-11-02T04:48:04.185Z,66.55
2022-11-02T04:49:03.788Z,68.16
2022-11-02T04:50:03.782Z,67.03
2022-11-02T04:51:03.770Z,64.29
2022-11-02T04:52:03.764Z,66.06
2022-11-02T04:53:03.769Z,62.68
2022-11-02T04:54:03.781Z,64.29
2022-11-02T04:55:03.745Z,68.80
2022-11-02T04:56:03.737Z,66.23
2022-11-02T04:57:03.734Z,62.36
2022-11-02T04:58:04.341Z,65.26
2022-11-02T04:59:03.719Z,66.23
2022-11-02T05:00:03.727Z,63.65
2022-11-02T05:01:03.704Z,62.84
2022-11-02T05:02:03.798Z,65.10
2022-11-02T05:03:06.831Z,64.61
2022-11-02T05:04:04.676Z,67.68
2022-11-02T05:05:03.676Z,65.74
2022-11-02T05:06:03.669Z,65.10
2022-11-02T05:07:03.672Z,65.58
2022-11-02T05:08:05.078Z,65.90
2022-11-02T05:09:03.654Z,64.29
2022-11-02T05:10:03.637Z,68.16
2022-11-02T05:11:03.639Z,65.58
2022-11-02T05:12:03.639Z,66.71
2022-11-02T05:13:03.625Z,65.42
2022-11-02T05:14:03.620Z,68.00
2022-11-02T05:15:03.607Z,64.45
2022-11-02T05:16:03.600Z,65.10
2022-11-02T05:17:03.597Z,66.87
2022-11-02T05:18:04.142Z,65.42
2022-11-02T05:19:05.677Z,65.10
2022-11-02T05:20:03.563Z,65.26
2022-11-02T05:21:03.568Z,66.71
2022-11-02T05:22:03.557Z,67.03
2022-11-02T05:23:03.811Z,65.90
2022-11-02T05:24:03.552Z,65.10
2022-11-02T05:25:03.537Z,65.42
2022-11-02T05:26:03.529Z,67.03
2022-11-02T05:27:03.525Z,67.51
2022-11-02T05:28:03.521Z,66.55
2022-11-02T05:29:03.508Z,68.96
2022-11-02T05:30:04.499Z,65.74
2022-11-02T05:31:03.492Z,67.03
2022-11-02T05:32:03.503Z,65.90
2022-11-02T05:33:03.747Z,68.32
2022-11-02T05:34:03.495Z,66.23
2022-11-02T05:35:03.460Z,67.51
2022-11-02T05:36:03.469Z,66.87
2022-11-02T05:37:03.472Z,66.87
2022-11-02T05:38:03.448Z,67.68
2022-11-02T05:39:03.471Z,68.96
2022-11-02T05:40:03.431Z,67.68
2022-11-02T05:41:03.424Z,68.00
2022-11-02T05:42:03.423Z,66.55
2022-11-02T05:43:03.787Z,67.51
2022-11-02T05:44:03.407Z,67.19
2022-11-02T05:45:03.411Z,66.23
2022-11-02T05:46:03.406Z,67.68
2022-11-02T05:47:03.385Z,68.16
2022-11-02T05:48:03.380Z,67.51
2022-11-02T05:49:03.358Z,66.23
2022-11-02T05:50:04.382Z,67.03
2022-11-02T05:51:03.358Z,66.39
2022-11-02T05:52:03.351Z,65.74
2022-11-02T05:53:03.640Z,66.23
2022-11-02T05:54:03.336Z,67.68
2022-11-02T05:55:03.349Z,69.77
2022-11-02T05:56:03.323Z,64.29
2022-11-02T05:57:03.315Z,68.96
2022-11-02T05:58:03.311Z,66.87
2022-11-02T05:59:03.307Z,67.19
2022-11-02T06:00:03.315Z,68.32
2022-11-02T06:01:03.287Z,65.74
2022-11-02T06:02:03.408Z,65.74
2022-11-02T06:03:03.509Z,65.10
2022-11-02T06:04:03.263Z,67.03
2022-11-02T06:05:03.327Z,66.71
2022-11-02T06:06:03.257Z,65.74
2022-11-02T06:07:03.238Z,67.84
2022-11-02T06:08:03.248Z,67.35
2022-11-02T06:09:07.178Z,67.03
2022-11-02T06:10:04.229Z,67.03
2022-11-02T06:11:03.215Z,66.23
2022-11-02T06:12:03.212Z,65.58
2022-11-02T06:13:03.610Z,67.51
2022-11-02T06:14:03.187Z,66.55
2022-11-02T06:15:03.188Z,68.64
2022-11-02T06:16:03.186Z,65.74
2022-11-02T06:17:03.163Z,65.10
2022-11-02T06:18:03.162Z,66.71
2022-11-02T06:19:03.221Z,68.00
2022-11-02T06:20:03.154Z,64.94
2022-11-02T06:21:03.147Z,64.78
2022-11-02T06:22:03.142Z,65.26
2022-11-02T06:23:03.483Z,67.84
2022-11-02T06:24:03.121Z,64.78
2022-11-02T06:25:03.116Z,65.58
2022-11-02T06:26:03.127Z,66.55
2022-11-02T06:27:03.095Z,67.51
2022-11-02T06:28:03.097Z,65.10
2022-11-02T06:29:03.091Z,63.97
2022-11-02T06:30:03.079Z,66.55
2022-11-02T06:31:03.084Z,66.23
2022-11-02T06:32:03.068Z,65.74
2022-11-02T06:33:07.002Z,65.26
2022-11-02T06:34:04.056Z,79.28
2022-11-02T06:35:03.051Z,66.39
2022-11-02T06:36:03.039Z,68.32
2022-11-02T06:37:03.042Z,65.42
2022-11-02T06:38:03.027Z,65.26
2022-11-02T06:39:03.033Z,65.42
2022-11-02T06:40:03.013Z,66.39
2022-11-02T06:41:03.018Z,67.03
2022-11-02T06:42:02.999Z,65.26
2022-11-02T06:43:15.809Z,65.90
2022-11-02T06:44:04.992Z,65.42
2022-11-02T06:45:02.986Z,65.42
2022-11-02T06:46:02.988Z,65.42
2022-11-02T06:47:02.971Z,65.26
2022-11-02T06:48:02.959Z,67.84
2022-11-02T06:49:02.944Z,66.71
2022-11-02T06:50:03.939Z,71.06
2022-11-02T06:51:02.967Z,65.58
2022-11-02T06:52:02.950Z,66.06
2022-11-02T06:53:03.336Z,66.71
2022-11-02T06:54:08.348Z,65.42
2022-11-02T06:55:04.911Z,66.06
2022-11-02T06:56:02.911Z,66.23
2022-11-02T06:57:02.896Z,67.51
2022-11-02T06:58:02.898Z,65.26
2022-11-02T06:59:02.891Z,65.90
2022-11-02T07:00:02.935Z,67.19
2022-11-02T07:01:03.079Z,67.03
2022-11-02T07:02:03.068Z,64.94
2022-11-02T07:03:03.223Z,66.55
2022-11-02T07:04:02.858Z,64.78
2022-11-02T07:05:02.842Z,67.19
2022-11-02T07:06:02.838Z,65.74
2022-11-02T07:07:02.834Z,64.13
2022-11-02T07:08:02.827Z,64.29
2022-11-02T07:09:02.823Z,64.61
2022-11-02T07:10:02.821Z,63.97
2022-11-02T07:11:02.806Z,63.49
2022-11-02T07:12:02.799Z,62.68
2022-11-02T07:13:03.267Z,64.78
2022-11-02T07:14:02.794Z,62.68
2022-11-02T07:15:02.775Z,65.10
2022-11-02T07:16:02.775Z,64.13
2022-11-02T07:17:02.774Z,66.06
2022-11-02T07:18:02.787Z,65.26
2022-11-02T07:19:02.751Z,64.45
2022-11-02T07:20:02.760Z,63.97
2022-11-02T07:21:02.754Z,62.20
2022-11-02T07:22:02.734Z,66.55
2022-11-02T07:23:03.064Z,64.45
2022-11-02T07:24:02.737Z,64.45
2022-11-02T07:25:02.711Z,63.81
2022-11-02T07:26:02.715Z,63.97
2022-11-02T07:27:02.707Z,63.97
2022-11-02T07:28:02.698Z,64.78
2022-11-02T07:29:02.706Z,71.87
2022-11-02T07:30:02.679Z,69.29
2022-11-02T07:31:02.686Z,63.97
2022-11-02T07:32:02.674Z,64.13
2022-11-02T07:33:02.975Z,62.20
2022-11-02T07:34:02.670Z,64.61
2022-11-02T07:35:02.678Z,65.74
2022-11-02T07:36:02.650Z,65.26
2022-11-02T07:37:02.643Z,63.65
2022-11-02T07:38:02.646Z,65.90
2022-11-02T07:39:02.662Z,64.61
2022-11-02T07:40:02.624Z,64.78
2022-11-02T07:41:02.623Z,65.90
2022-11-02T07:42:02.672Z,63.81
2022-11-02T07:43:02.960Z,63.16
2022-11-02T07:44:02.632Z,64.29
2022-11-02T07:45:02.596Z,66.39
2022-11-02T07:46:02.587Z,79.12
2022-11-02T07:47:02.580Z,81.86
2022-11-02T07:48:02.571Z,81.37
2022-11-02T07:49:02.559Z,67.03
2022-11-02T07:50:02.590Z,72.35
2022-11-02T07:51:02.562Z,78.63
2022-11-02T07:52:02.547Z,77.67
2022-11-02T07:53:02.824Z,63.16
2022-11-02T07:54:02.532Z,64.29
2022-11-02T07:55:02.530Z,63.65
2022-11-02T07:56:02.523Z,66.23
2022-11-02T07:57:02.520Z,63.81
2022-11-02T07:58:02.542Z,62.52
2022-11-02T07:59:02.491Z,63.16
2022-11-02T08:00:02.512Z,63.65
2022-11-02T08:01:02.563Z,64.78
2022-11-02T08:02:02.480Z,65.58
2022-11-02T08:03:02.855Z,65.26
2022-11-02T08:04:02.458Z,65.42
2022-11-02T08:05:02.466Z,65.42
2022-11-02T08:06:02.594Z,66.23
2022-11-02T08:07:02.454Z,65.10
2022-11-02T08:08:02.641Z,64.13
2022-11-02T08:09:02.426Z,63.65
2022-11-02T08:10:02.450Z,64.61
2022-11-02T08:11:02.434Z,64.13
2022-11-02T08:12:02.414Z,64.94
2022-11-02T08:13:02.412Z,66.87
2022-11-02T08:14:02.402Z,63.33
2022-11-02T08:15:07.404Z,62.68
2022-11-02T08:16:04.411Z,64.29
2022-11-02T08:17:02.373Z,64.61
2022-11-02T08:18:02.845Z,65.42
2022-11-02T08:19:02.369Z,65.26
2022-11-02T08:20:02.363Z,63.16
2022-11-02T08:21:02.357Z,71.38
2022-11-02T08:22:02.351Z,67.19
2022-11-02T08:23:02.343Z,65.58
2022-11-02T08:24:02.322Z,64.94
2022-11-02T08:25:02.437Z,69.29
2022-11-02T08:26:02.335Z,65.26
2022-11-02T08:27:02.310Z,65.26
2022-11-02T08:28:02.644Z,65.42
2022-11-02T08:29:02.305Z,67.03
2022-11-02T08:30:02.303Z,62.52
2022-11-02T08:31:02.310Z,62.68
2022-11-02T08:32:02.287Z,64.29
2022-11-02T08:33:02.313Z,63.00
2022-11-02T08:34:02.279Z,62.52
2022-11-02T08:35:02.267Z,64.78
2022-11-02T08:36:02.281Z,65.74
2022-11-02T08:37:02.252Z,64.13
2022-11-02T08:38:02.541Z,64.61
2022-11-02T08:39:02.239Z,65.74
2022-11-02T08:40:02.226Z,63.81
2022-11-02T08:41:02.235Z,62.68
2022-11-02T08:42:02.203Z,64.45
2022-11-02T08:43:02.218Z,62.04
2022-11-02T08:44:02.198Z,65.42
2022-11-02T08:45:02.190Z,65.74
2022-11-02T08:46:14.981Z,63.97
2022-11-02T08:47:06.895Z,62.68
2022-11-02T08:48:03.433Z,63.65
2022-11-02T08:49:02.271Z,63.65
2022-11-02T08:50:02.230Z,65.10
2022-11-02T08:51:02.146Z,67.68
2022-11-02T08:52:02.149Z,65.58
2022-11-02T08:53:02.142Z,65.58
2022-11-02T08:54:02.140Z,64.61
2022-11-02T08:55:02.122Z,65.58
2022-11-02T08:56:02.123Z,62.84
2022-11-02T08:57:02.103Z,63.49
2022-11-02T08:58:02.363Z,63.33
2022-11-02T08:59:02.130Z,64.29
2022-11-02T09:00:02.094Z,63.81
2022-11-02T09:01:02.086Z,62.68
2022-11-02T09:02:02.232Z,64.13
2022-11-02T09:03:02.097Z,63.49
2022-11-02T09:04:02.067Z,62.36
2022-11-02T09:05:02.066Z,62.84
2022-11-02T09:06:02.051Z,63.97
2022-11-02T09:07:02.043Z,62.52
2022-11-02T09:08:02.221Z,62.04
2022-11-02T09:09:02.042Z,63.00
2022-11-02T09:10:02.030Z,61.55
2022-11-02T09:11:02.034Z,63.97
2022-11-02T09:12:02.026Z,63.49
2022-11-02T09:13:02.265Z,61.07
2022-11-02T09:14:02.089Z,62.52
2022-11-02T09:15:02.004Z,63.00
2022-11-02T09:16:01.995Z,63.65
2022-11-02T09:17:01.984Z,62.68
2022-11-02T09:18:02.235Z,63.00
2022-11-02T09:19:01.968Z,64.61
2022-11-02T09:20:01.986Z,65.42
2022-11-02T09:21:01.956Z,63.49
2022-11-02T09:22:05.615Z,60.59
2022-11-02T09:23:01.946Z,60.59
2022-11-02T09:24:01.938Z,62.04
2022-11-02T09:25:01.961Z,62.04
2022-11-02T09:26:01.936Z,62.68
2022-11-02T09:27:01.932Z,65.26
2022-11-02T09:28:01.889Z,62.52
2022-11-02T09:29:01.903Z,63.33
2022-11-02T09:30:01.905Z,63.16
2022-11-02T09:31:02.995Z,65.58
2022-11-02T09:32:01.883Z,63.33
2022-11-02T09:33:02.162Z,64.45
2022-11-02T09:34:01.874Z,68.00
2022-11-02T09:35:01.862Z,65.74
2022-11-02T09:36:01.874Z,66.55
2022-11-02T09:37:01.852Z,63.97
2022-11-02T09:38:01.838Z,61.39
2022-11-02T09:39:01.826Z,66.23
2022-11-02T09:40:01.830Z,62.36
2022-11-02T09:41:01.824Z,62.36
2022-11-02T09:42:01.807Z,63.81
2022-11-02T09:43:01.985Z,64.94
2022-11-02T09:44:01.794Z,62.20
2022-11-02T09:45:01.781Z,64.61
2022-11-02T09:46:01.794Z,62.52
2022-11-02T09:47:49.560Z,62.04
2022-11-02T09:48:16.884Z,63.65
2022-11-02T09:49:03.761Z,63.16
2022-11-02T09:50:01.753Z,63.00
2022-11-02T09:51:02.483Z,65.58
2022-11-02T09:52:01.755Z,62.20
2022-11-02T09:53:02.039Z,61.71
2022-11-02T09:54:01.723Z,61.23
2022-11-02T09:55:01.710Z,61.71
2022-11-02T09:56:01.722Z,67.84
2022-11-02T09:57:01.721Z,64.29
2022-11-02T09:58:01.932Z,63.65
2022-11-02T09:59:01.737Z,67.51
2022-11-02T10:00:01.688Z,63.97
2022-11-02T10:01:02.059Z,64.61
2022-11-02T10:02:02.694Z,63.16
2022-11-02T10:03:01.714Z,61.87
2022-11-02T10:04:01.665Z,63.65
2022-11-02T10:05:01.667Z,62.36
2022-11-02T10:06:01.647Z,65.26
2022-11-02T10:07:01.654Z,61.07
2022-11-02T10:08:01.783Z,63.81
2022-11-02T10:09:01.622Z,61.71
2022-11-02T10:10:01.621Z,63.16
2022-11-02T10:11:06.907Z,62.20
2022-11-02T10:12:03.622Z,63.16
2022-11-02T10:13:01.761Z,64.94
2022-11-02T10:14:01.585Z,63.65
2022-11-02T10:15:01.586Z,61.87
2022-11-02T10:16:01.578Z,63.33
2022-11-02T10:17:01.576Z,66.71
2022-11-02T10:18:01.575Z,66.55
2022-11-02T10:19:01.554Z,63.33
2022-11-02T10:20:01.556Z,64.13
2022-11-02T10:21:01.531Z,65.74
2022-11-02T10:22:01.537Z,62.68
2022-11-02T10:23:01.679Z,63.00
2022-11-02T10:24:01.522Z,62.52
2022-11-02T10:25:01.509Z,63.65
2022-11-02T10:26:01.510Z,63.81
2022-11-02T10:27:01.506Z,61.87
2022-11-02T10:28:01.515Z,64.78
2022-11-02T10:29:01.495Z,62.84
2022-11-02T10:30:01.489Z,63.00
2022-11-02T10:31:01.473Z,61.23
2022-11-02T10:32:01.471Z,61.55
2022-11-02T10:33:01.583Z,62.68
2022-11-02T10:34:01.468Z,63.65
2022-11-02T10:35:17.411Z,62.36
2022-11-02T10:36:17.445Z,61.07
2022-11-02T10:37:03.438Z,62.20
2022-11-02T10:38:01.707Z,61.71
2022-11-02T10:39:01.462Z,62.68
2022-11-02T10:40:01.414Z,63.16
2022-11-02T10:41:01.392Z,63.81
2022-11-02T10:42:02.401Z,61.87
2022-11-02T10:43:01.406Z,61.55
2022-11-02T10:44:01.388Z,62.36
2022-11-02T10:45:01.384Z,62.04
2022-11-02T10:46:01.378Z,62.36
2022-11-02T10:47:01.371Z,62.36
2022-11-02T10:48:01.556Z,62.84
2022-11-02T10:49:01.366Z,62.36
2022-11-02T10:50:01.369Z,60.59
2022-11-02T10:51:01.344Z,63.49
2022-11-02T10:52:01.336Z,62.84
2022-11-02T10:53:20.276Z,63.65
2022-11-02T10:54:03.346Z,66.23
2022-11-02T10:55:01.318Z,59.94
2022-11-02T10:56:01.318Z,63.33
2022-11-02T10:57:01.871Z,61.39
2022-11-02T10:58:01.307Z,61.71
2022-11-02T10:59:01.305Z,61.55
2022-11-02T11:00:01.300Z,62.84
2022-11-02T11:01:01.306Z,63.00
2022-11-02T11:02:01.377Z,64.78
2022-11-02T11:03:01.280Z,63.97
2022-11-02T11:04:01.319Z,66.71
2022-11-02T11:05:01.264Z,62.52
2022-11-02T11:06:01.254Z,63.16
2022-11-02T11:07:01.241Z,62.52
2022-11-02T11:08:01.355Z,63.65
2022-11-02T11:09:01.249Z,63.16
2022-11-02T11:10:01.231Z,60.75
2022-11-02T11:11:01.225Z,61.39
2022-11-02T11:12:01.200Z,63.16
2022-11-02T11:13:02.286Z,64.78
2022-11-02T11:16:03.188Z,62.36
2022-11-02T11:20:05.912Z,64.29
2022-11-02T11:21:02.837Z,63.33
2022-11-02T11:22:01.152Z,66.87
2022-11-02T11:23:01.232Z,63.16
2022-11-02T11:24:01.177Z,65.58
2022-11-02T11:25:01.127Z,63.49
2022-11-02T11:26:01.136Z,68.48
2022-11-02T11:27:01.129Z,64.78
2022-11-02T11:28:01.128Z,65.42
2022-11-02T11:29:01.102Z,63.97
2022-11-02T11:30:01.097Z,63.16
2022-11-02T11:31:01.196Z,61.55
2022-11-02T11:32:01.089Z,63.16
2022-11-02T11:33:01.086Z,63.65
2022-11-02T11:34:01.063Z,64.13
2022-11-02T11:35:01.068Z,65.58
2022-11-02T11:36:01.065Z,62.20
2022-11-02T11:37:01.061Z,67.19
2022-11-02T11:38:01.164Z,62.36
2022-11-02T11:39:01.036Z,63.00
2022-11-02T11:40:01.061Z,61.23
2022-11-02T11:41:01.051Z,62.36
2022-11-02T11:42:01.027Z,67.19
2022-11-02T11:43:02.358Z,63.97
2022-11-02T11:44:01.009Z,62.04
2022-11-02T11:45:01.012Z,65.42
2022-11-02T11:46:05.718Z,62.52
2022-11-02T11:47:03.003Z,61.71
2022-11-02T11:48:00.988Z,61.39
2022-11-02T11:49:00.991Z,60.59
2022-11-02T11:50:18.564Z,59.14
2022-11-02T11:51:02.981Z,63.65
2022-11-02T11:52:00.967Z,61.39
2022-11-02T11:53:00.963Z,62.52
2022-11-02T11:54:00.956Z,62.04
2022-11-02T11:55:00.949Z,61.07
2022-11-02T11:56:00.940Z,61.71
2022-11-02T11:57:00.956Z,60.75
2022-11-02T11:58:00.936Z,61.71
2022-11-02T11:59:00.930Z,63.65
2022-11-02T12:00:00.920Z,62.36
2022-11-02T12:01:04.447Z,63.00
2022-11-02T12:02:02.676Z,66.06
2022-11-02T12:03:00.952Z,62.04
2022-11-02T12:04:00.894Z,62.68
2022-11-02T12:05:00.880Z,62.84
2022-11-02T12:06:00.875Z,63.97
2022-11-02T12:07:00.888Z,61.71
2022-11-02T12:08:00.868Z,62.84
2022-11-02T12:09:04.438Z,62.04
2022-11-02T12:10:01.849Z,61.39
2022-11-02T12:11:00.853Z,63.00
2022-11-02T12:12:00.849Z,61.39
2022-11-02T12:13:00.832Z,63.16
2022-11-02T12:14:00.817Z,63.33
2022-11-02T12:15:06.631Z,62.04
2022-11-02T12:16:02.816Z,61.07
2022-11-02T12:17:00.804Z,61.55
2022-11-02T12:18:00.808Z,62.84
2022-11-02T12:19:00.827Z,62.52
2022-11-02T12:20:00.788Z,63.00
2022-11-02T12:21:00.779Z,63.16
2022-11-02T12:22:00.783Z,63.97
2022-11-02T12:23:00.773Z,67.84
2022-11-02T12:24:00.797Z,65.26
2022-11-02T12:25:01.757Z,69.13
2022-11-02T12:26:03.328Z,63.00
2022-11-02T12:27:01.756Z,69.77
2022-11-02T12:28:00.733Z,65.10
2022-11-02T12:29:00.736Z,62.20
2022-11-02T12:30:00.752Z,62.52
2022-11-02T12:31:00.720Z,62.36
2022-11-02T12:32:01.167Z,62.68
2022-11-02T12:33:01.986Z,64.45
2022-11-02T12:34:00.696Z,61.07
2022-11-02T12:35:28.563Z,63.97
2022-11-02T12:36:02.717Z,61.87
2022-11-02T12:38:02.978Z,63.49
2022-11-02T12:39:00.675Z,64.78
2022-11-02T12:40:00.648Z,64.45
2022-11-02T12:41:00.663Z,63.97
2022-11-02T12:42:00.659Z,65.58
2022-11-02T12:43:00.650Z,63.33
2022-11-02T12:44:00.641Z,62.04
2022-11-02T12:45:00.633Z,62.04
2022-11-02T12:46:00.620Z,63.33
2022-11-02T12:47:00.619Z,61.87
2022-11-02T12:48:00.612Z,61.39
2022-11-02T12:49:00.604Z,62.36
2022-11-02T12:50:00.603Z,60.59
2022-11-02T12:51:00.596Z,61.07
2022-11-02T12:52:00.583Z,64.29
2022-11-02T12:53:00.640Z,62.04
2022-11-02T12:54:00.587Z,60.26
2022-11-02T12:55:00.564Z,61.87
2022-11-02T12:56:00.555Z,61.07
2022-11-02T12:57:00.558Z,62.04
2022-11-02T12:58:00.546Z,61.55
2022-11-02T12:59:00.547Z,62.52
2022-11-02T13:00:00.527Z,61.55
2022-11-02T13:01:00.551Z,60.59
2022-11-02T13:02:00.714Z,59.62
2022-11-02T13:03:00.518Z,60.91
2022-11-02T13:04:00.525Z,62.20